createdAt,value
2018-03-19T00:00:52.353Z,8.43
2018-03-19T00:05:26.130Z,9.97
2018-03-19T00:09:59.444Z,11.23
2018-03-19T00:14:32.709Z,7.57
2018-03-19T00:19:06.638Z,9.57
2018-03-19T00:23:40.938Z,9.77
2018-03-19T00:28:14.354Z,9.03
2018-03-19T00:32:47.610Z,10.63
2018-03-19T00:37:21.637Z,12.00
2018-03-19T00:41:55.675Z,11.10
2018-03-19T00:46:29.173Z,9.17
2018-03-19T00:51:02.499Z,10.90
2018-03-19T00:55:36.730Z,9.20
2018-03-19T01:00:10.797Z,8.57
2018-03-19T01:04:44.069Z,12.77
2018-03-19T01:09:17.406Z,12.27
2018-03-19T01:13:51.511Z,10.70
2018-03-19T01:18:24.833Z,12.30
2018-03-19T01:22:58.107Z,10.53
2018-03-19T01:27:32.713Z,6.77
2018-03-19T01:32:06.222Z,11.37
2018-03-19T01:36:39.492Z,11.97
2018-03-19T01:41:12.809Z,11.77
2018-03-19T01:45:46.135Z,9.33
2018-03-19T01:50:19.750Z,9.17
2018-03-19T01:54:53.118Z,11.80
2018-03-19T01:59:27.256Z,8.87
2018-03-19T02:04:01.410Z,10.70
2018-03-19T02:08:35.257Z,6.73
2018-03-19T02:13:08.719Z,11.57
2018-03-19T02:17:42.130Z,10.73
2018-03-19T02:22:16.364Z,6.73
2018-03-19T02:26:50.409Z,10.87
2018-03-19T02:31:24.064Z,9.57
2018-03-19T02:35:58.133Z,8.47
2018-03-19T02:40:32.236Z,10.80
2018-03-19T02:45:07.105Z,10.30
2018-03-19T02:49:41.233Z,8.90
2018-03-19T02:54:15.596Z,10.80
2018-03-19T02:58:48.881Z,10.97
2018-03-19T03:03:22.162Z,10.27
2018-03-19T03:07:56.118Z,11.20
2018-03-19T03:12:29.351Z,11.67
2018-03-19T03:17:02.655Z,9.60
2018-03-19T03:21:35.958Z,11.60
2018-03-19T03:26:09.483Z,10.30
2018-03-19T03:30:42.858Z,9.40
2018-03-19T03:35:16.174Z,10.90
2018-03-19T03:39:49.500Z,11.27
2018-03-19T03:44:22.786Z,10.40
2018-03-19T03:48:56.914Z,9.97
2018-03-19T03:53:31.194Z,9.33
2018-03-19T03:58:04.606Z,9.00
2018-03-19T04:02:38.685Z,8.03
2018-03-19T04:07:12.722Z,6.87
2018-03-19T04:11:46.526Z,9.83
2018-03-19T04:16:20.782Z,11.13
2018-03-19T04:20:54.105Z,10.87
2018-03-19T04:25:27.401Z,10.50
2018-03-19T04:30:00.726Z,7.97
2018-03-19T04:34:34.216Z,8.33
2018-03-19T04:39:07.476Z,10.40
2018-03-19T04:43:41.331Z,11.17
2018-03-19T04:52:54.918Z,10.33
2018-03-19T04:57:28.229Z,11.47
2018-03-19T05:02:02.274Z,11.10
2018-03-19T05:06:36.114Z,10.37
2018-03-19T05:11:09.601Z,10.57
2018-03-19T05:15:42.902Z,11.23
2018-03-19T05:20:16.933Z,9.63
2018-03-19T05:24:50.320Z,9.97
2018-03-19T05:29:24.386Z,10.13
2018-03-19T05:33:57.704Z,12.30
2018-03-19T05:38:30.978Z,11.27
2018-03-19T05:43:05.206Z,12.57
2018-03-19T05:47:39.909Z,9.77
2018-03-19T05:52:13.194Z,12.47
2018-03-19T05:56:46.598Z,12.60
2018-03-19T06:01:19.832Z,10.03
2018-03-19T06:05:53.234Z,8.10
2018-03-19T06:10:26.516Z,11.67
2018-03-19T06:15:00.551Z,8.63
2018-03-19T06:19:34.064Z,8.57
2018-03-19T06:24:07.358Z,8.43
2018-03-19T06:28:40.673Z,11.80
2018-03-19T06:33:14.192Z,10.57
2018-03-19T06:37:47.827Z,8.70
2018-03-19T06:42:21.193Z,9.93
2018-03-19T06:46:55.289Z,11.03
2018-03-19T06:51:28.766Z,12.73
2018-03-19T06:56:02.278Z,13.80
2018-03-19T07:00:35.587Z,8.97
2018-03-19T07:05:09.224Z,12.47
2018-03-19T07:09:42.606Z,12.80
2018-03-19T07:14:15.998Z,9.23
2018-03-19T07:18:49.515Z,12.07
2018-03-19T07:23:23.024Z,13.77
2018-03-19T07:27:57.799Z,11.10
2018-03-19T07:32:31.070Z,11.93
2018-03-19T07:37:05.588Z,9.27
2018-03-19T07:41:39.050Z,11.90
2018-03-19T07:46:13.152Z,10.70
2018-03-19T07:50:47.954Z,13.07
2018-03-19T07:55:21.310Z,11.13
2018-03-19T07:59:55.393Z,9.63
2018-03-19T08:04:28.773Z,10.97
2018-03-19T08:09:02.057Z,13.23
2018-03-19T08:13:36.211Z,12.03
2018-03-19T08:18:11.276Z,11.17
2018-03-19T08:22:44.676Z,12.33
2018-03-19T08:27:18.049Z,10.73
2018-03-19T08:31:52.106Z,11.97
2018-03-19T08:36:25.570Z,10.43
2018-03-19T08:40:58.864Z,13.70
2018-03-19T08:45:33.156Z,14.47
2018-03-19T08:50:06.546Z,13.17
2018-03-19T08:54:40.619Z,11.73
2018-03-19T08:59:13.867Z,11.90
2018-03-19T09:03:48.549Z,11.77
2018-03-19T09:08:21.966Z,12.50
2018-03-19T09:12:55.357Z,11.00
2018-03-19T09:17:28.752Z,12.80
2018-03-19T09:22:02.932Z,13.77
2018-03-19T09:26:36.336Z,10.90
2018-03-19T09:31:09.779Z,14.13
2018-03-19T09:35:43.152Z,13.17
2018-03-19T09:40:16.634Z,11.67
2018-03-19T09:44:51.628Z,13.80
2018-03-19T09:49:25.037Z,12.97
2018-03-19T09:53:58.349Z,11.70
2018-03-19T09:58:31.673Z,12.20
2018-03-19T10:03:05.336Z,12.07
2018-03-19T10:07:39.372Z,13.63
2018-03-19T10:12:12.678Z,11.77
2018-03-19T10:16:46.077Z,12.17
2018-03-19T10:21:20.310Z,13.50
2018-03-19T10:25:54.341Z,10.60
2018-03-19T10:30:28.688Z,13.33
2018-03-19T10:35:02.677Z,11.50
2018-03-19T10:39:36.746Z,12.37
2018-03-19T10:44:10.057Z,12.97
2018-03-19T10:48:43.298Z,10.80
2018-03-19T10:53:17.396Z,11.20
2018-03-19T10:57:50.694Z,10.77
2018-03-19T11:07:39.002Z,12.63
2018-03-19T11:12:12.748Z,13.40
2018-03-19T11:16:46.417Z,11.07
2018-03-19T11:21:19.672Z,12.93
2018-03-19T11:25:53.058Z,11.10
2018-03-19T11:30:26.710Z,12.40
2018-03-19T11:35:00.271Z,12.27
2018-03-19T11:39:33.760Z,10.10
2018-03-19T11:44:08.460Z,11.27
2018-03-19T11:48:41.850Z,9.47
2018-03-19T11:53:15.165Z,12.00
2018-03-19T11:57:48.562Z,11.93
2018-03-19T12:02:21.872Z,10.37
2018-03-19T12:06:55.205Z,11.37
2018-03-19T12:11:29.048Z,13.23
2018-03-19T12:16:02.305Z,12.67
2018-03-19T12:20:35.623Z,12.50
2018-03-19T12:25:08.902Z,13.13
2018-03-19T12:29:43.043Z,12.67
2018-03-19T12:34:17.009Z,13.77
2018-03-19T12:38:50.269Z,11.47
2018-03-19T12:43:24.322Z,11.33
2018-03-19T12:47:57.705Z,13.00
2018-03-19T12:52:31.747Z,13.07
2018-03-19T12:57:05.062Z,13.00
2018-03-19T13:01:38.453Z,12.60
2018-03-19T13:06:12.696Z,13.90
2018-03-19T13:10:46.226Z,12.03
2018-03-19T13:15:19.608Z,13.03
2018-03-19T13:19:53.641Z,13.67
2018-03-19T13:24:28.000Z,13.03
2018-03-19T13:29:01.306Z,12.10
2018-03-19T13:33:34.572Z,12.83
2018-03-19T13:38:08.737Z,12.47
2018-03-19T13:42:42.001Z,11.87
2018-03-19T13:47:15.262Z,11.57
2018-03-19T13:51:48.521Z,12.43
2018-03-19T13:56:21.949Z,12.73
2018-03-19T14:00:55.968Z,12.53
2018-03-19T14:05:30.021Z,11.70
2018-03-19T14:10:03.417Z,12.67
2018-03-19T14:14:37.428Z,11.43
2018-03-19T14:19:10.856Z,14.30
2018-03-19T14:23:44.191Z,12.10
2018-03-19T14:28:17.570Z,8.80
2018-03-19T14:32:51.756Z,10.77
2018-03-19T14:37:25.047Z,11.20
2018-03-19T14:42:00.161Z,10.93
2018-03-19T14:46:33.497Z,11.67
2018-03-19T14:51:07.659Z,12.97
2018-03-19T14:55:41.115Z,11.70
2018-03-19T15:00:15.164Z,13.13
2018-03-19T15:04:48.547Z,13.13
2018-03-19T15:09:22.574Z,12.77
2018-03-19T15:13:56.604Z,11.33
2018-03-19T15:18:29.918Z,14.23
2018-03-19T15:23:04.138Z,12.53
2018-03-19T15:27:38.170Z,12.17
2018-03-19T15:32:12.208Z,13.73
2018-03-19T15:36:46.131Z,12.83
2018-03-19T15:41:19.445Z,14.63
2018-03-19T15:45:52.837Z,13.13
2018-03-19T15:50:27.066Z,12.37
2018-03-19T15:55:01.097Z,14.00
2018-03-19T15:59:35.223Z,14.47
2018-03-19T16:04:08.644Z,12.43
2018-03-19T16:08:41.914Z,12.87
2018-03-19T16:13:16.070Z,10.93
2018-03-19T16:17:50.230Z,11.93
2018-03-19T16:22:23.699Z,11.70
2018-03-19T16:26:58.277Z,12.53
2018-03-19T16:31:31.586Z,11.33
2018-03-19T16:36:05.075Z,11.00
2018-03-19T16:40:39.140Z,10.47
2018-03-19T16:45:12.386Z,13.23
2018-03-19T16:49:46.329Z,13.33
2018-03-19T16:54:20.381Z,16.17
2018-03-19T16:58:53.770Z,14.10
2018-03-19T17:03:27.814Z,16.60
2018-03-19T17:08:01.230Z,15.33
2018-03-19T17:12:34.472Z,14.93
2018-03-19T17:17:07.975Z,15.30
2018-03-19T17:21:42.109Z,15.20
2018-03-19T17:26:15.571Z,14.07
2018-03-19T17:30:49.700Z,14.17
2018-03-19T17:35:23.826Z,13.73
2018-03-19T17:39:57.853Z,14.93
2018-03-19T17:44:32.193Z,11.70
2018-03-19T17:49:05.627Z,12.97
2018-03-19T17:53:38.902Z,14.00
2018-03-19T17:58:13.033Z,13.17
2018-03-19T18:02:46.379Z,13.23
2018-03-19T18:07:19.721Z,14.17
2018-03-19T18:11:53.168Z,13.93
2018-03-19T18:16:27.532Z,13.20
2018-03-19T18:21:00.917Z,15.13
2018-03-19T18:25:34.322Z,13.90
2018-03-19T18:30:08.359Z,11.50
2018-03-19T18:34:41.990Z,13.93
2018-03-19T18:39:15.768Z,13.37
2018-03-19T18:43:49.196Z,12.23
2018-03-19T18:48:22.606Z,14.07
2018-03-19T18:52:56.737Z,14.00
2018-03-19T18:57:30.806Z,12.40
2018-03-19T19:02:04.170Z,12.43
2018-03-19T19:06:39.054Z,10.97
2018-03-19T19:11:12.560Z,13.90
2018-03-19T19:15:46.047Z,13.67
2018-03-19T19:20:20.176Z,12.77
2018-03-19T19:24:54.210Z,13.30
2018-03-19T19:29:27.508Z,13.73
2018-03-19T19:34:02.023Z,13.60
2018-03-19T19:38:35.707Z,12.67
2018-03-19T19:43:09.076Z,13.70
2018-03-19T19:47:43.068Z,14.47
2018-03-19T19:52:16.514Z,14.40
2018-03-19T19:56:50.743Z,10.93
2018-03-19T20:01:25.026Z,13.57
2018-03-19T20:05:58.635Z,11.43
2018-03-19T20:10:31.915Z,13.63
2018-03-19T20:15:05.177Z,13.87
2018-03-19T20:19:38.519Z,14.83
2018-03-19T20:24:12.568Z,13.63
2018-03-19T20:28:45.814Z,13.90
2018-03-19T20:33:19.667Z,14.20
2018-03-19T20:37:53.084Z,10.97
2018-03-19T20:42:27.078Z,13.77
2018-03-19T20:47:00.766Z,14.70
2018-03-19T20:51:34.038Z,14.33
2018-03-19T20:56:08.269Z,12.47
2018-03-19T21:00:42.324Z,13.47
2018-03-19T21:05:15.706Z,14.70
2018-03-19T21:09:49.762Z,14.93
2018-03-19T21:14:23.245Z,15.40
2018-03-19T21:18:57.475Z,15.63
2018-03-19T21:23:31.766Z,15.80
2018-03-19T21:28:05.547Z,16.57
2018-03-19T21:32:38.858Z,16.17
2018-03-19T21:37:12.391Z,15.10
2018-03-19T21:41:47.395Z,12.53
2018-03-19T21:46:21.440Z,15.87
2018-03-19T21:50:54.970Z,16.60
2018-03-19T21:55:28.286Z,17.47
2018-03-19T22:00:01.687Z,17.17
2018-03-19T22:04:35.009Z,16.23
2018-03-19T22:09:08.483Z,16.50
2018-03-19T22:13:42.488Z,17.23
2018-03-19T22:18:16.336Z,14.57
2018-03-19T22:22:50.604Z,14.90
2018-03-19T22:27:23.874Z,16.17
2018-03-19T22:31:57.168Z,14.93
2018-03-19T22:36:31.231Z,15.00
2018-03-19T22:41:04.538Z,13.53
2018-03-19T22:45:37.855Z,13.93
2018-03-19T22:50:11.236Z,13.63
2018-03-19T22:54:45.467Z,14.53
2018-03-19T22:59:20.166Z,13.70
2018-03-19T23:03:53.620Z,12.43
2018-03-19T23:08:27.667Z,12.47
2018-03-19T23:13:01.570Z,12.87
2018-03-19T23:17:35.952Z,13.70
2018-03-19T23:22:09.181Z,9.40
2018-03-19T23:26:42.441Z,9.07
2018-03-19T23:31:15.855Z,11.07
2018-03-19T23:35:49.172Z,15.17
2018-03-19T23:40:22.693Z,13.93
2018-03-19T23:44:57.521Z,15.53
2018-03-19T23:49:30.801Z,14.53
2018-03-19T23:54:04.967Z,15.43
2018-03-19T23:58:38.273Z,15.17
